Time;durP1;ratioP1;P1;durP2;ratioP2;P2;SDS_P1;SDS_P2;PMS_P1;PMS_P2;Temp;Humidity;BMP_temperature;BMP_pressure;BME280_temperature;BME280_humidity;BME280_pressure;Samples;Min_cycle;Max_cycle;Signal;HPM_P1;HPM_P2
2022/10/21 04:01:13;;;;;;;32.77;27.80;;;;;;;;;;5645247;23;20451;-82
2022/10/21 04:03:40;;;;;;;34.03;28.63;;;;;;;;;;5025505;28;20407;-82
2022/10/21 04:06:06;;;;;;;37.47;29.97;;;;;;;;;;5028473;28;20725;-81
2022/10/21 04:08:32;;;;;;;36.85;28.65;;;;;;;;;;5032350;28;20430;-81
2022/10/21 04:10:58;;;;;;;30.80;26.30;;;;;;;;;;5026568;28;20385;-81
2022/10/21 04:13:24;;;;;;;34.22;26.90;;;;;;;;;;5012928;28;20389;-81
2022/10/21 04:15:50;;;;;;;39.30;29.40;;;;;;;;;;5012917;28;20412;-81
2022/10/21 04:18:16;;;;;;;33.67;27.75;;;;;;;;;;5012495;28;20444;-82
2022/10/21 04:20:42;;;;;;;35.35;29.25;;;;;;;;;;5012165;28;20395;-81
2022/10/21 04:23:08;;;;;;;38.17;30.02;;;;;;;;;;5012605;28;20468;-81
2022/10/21 04:25:34;;;;;;;35.05;28.80;;;;;;;;;;5012670;28;20472;-84
2022/10/21 04:28:00;;;;;;;40.00;29.83;;;;;;;;;;5003318;28;20408;-81
2022/10/21 04:30:26;;;;;;;34.97;28.15;;;;;;;;;;5002234;28;20428;-83
2022/10/21 04:32:52;;;;;;;43.42;31.00;;;;;;;;;;5006100;28;20388;-83
2022/10/21 04:35:18;;;;;;;35.75;28.90;;;;;;;;;;5011193;28;20384;-82
2022/10/21 04:37:44;;;;;;;32.10;27.20;;;;;;;;;;5012510;28;20841;-82
2022/10/21 04:40:10;;;;;;;33.10;26.05;;;;;;;;;;5012408;28;20460;-84
2022/10/21 04:42:36;;;;;;;28.55;25.40;;;;;;;;;;5012466;28;20839;-81
2022/10/21 04:45:02;;;;;;;32.27;26.83;;;;;;;;;;5012443;28;20471;-81
2022/10/21 04:47:28;;;;;;;49.10;37.83;;;;;;;;;;5012635;28;20420;-81
2022/10/21 04:49:54;;;;;;;38.13;31.98;;;;;;;;;;5012244;28;20889;-82
2022/10/21 04:52:20;;;;;;;40.72;32.10;;;;;;;;;;5012163;28;20376;-82
2022/10/21 04:54:46;;;;;;;38.07;30.90;;;;;;;;;;5012403;28;20419;-82
2022/10/21 04:57:13;;;;;;;38.25;29.73;;;;;;;;;;5012239;28;20894;-82
2022/10/21 04:59:38;;;;;;;37.67;29.05;;;;;;;;;;5012048;28;20458;-82
2022/10/21 05:02:04;;;;;;;36.80;27.45;;;;;;;;;;5012032;28;20429;-82
2022/10/21 05:04:30;;;;;;;32.97;26.60;;;;;;;;;;5012346;28;20734;-82
2022/10/21 05:06:56;;;;;;;34.33;27.00;;;;;;;;;;5012279;28;20388;-82
2022/10/21 05:09:22;;;;;;;38.73;28.53;;;;;;;;;;5012053;28;20468;-82
2022/10/21 05:11:48;;;;;;;35.00;26.70;;;;;;;;;;5012106;28;20393;-82
2022/10/21 05:14:14;;;;;;;31.75;26.65;;;;;;;;;;5012164;28;20454;-83
2022/10/21 05:16:40;;;;;;;30.65;25.75;;;;;;;;;;5014838;28;20385;-82
2022/10/21 05:19:06;;;;;;;30.73;25.40;;;;;;;;;;5016103;28;20877;-82
2022/10/21 05:21:32;;;;;;;32.47;25.45;;;;;;;;;;5016019;28;20373;-82
2022/10/21 05:23:58;;;;;;;35.53;28.42;;;;;;;;;;5014637;28;20404;-82
2022/10/21 05:26:24;;;;;;;35.35;28.35;;;;;;;;;;5015902;28;20468;-82
2022/10/21 05:28:50;;;;;;;32.15;26.08;;;;;;;;;;5016012;28;20408;-82
2022/10/21 05:31:16;;;;;;;30.35;26.40;;;;;;;;;;5015800;28;20384;-82
2022/10/21 05:33:42;;;;;;;30.95;25.88;;;;;;;;;;5015935;28;20392;-82
2022/10/21 05:36:08;;;;;;;38.33;29.03;;;;;;;;;;5015736;28;20476;-83
2022/10/21 05:38:34;;;;;;;43.30;30.02;;;;;;;;;;5015043;28;20558;-82
2022/10/21 05:41:00;;;;;;;37.90;28.73;;;;;;;;;;5015418;28;20754;-82
2022/10/21 05:43:27;;;;;;;43.15;30.35;;;;;;;;;;5015535;28;20881;-83
2022/10/21 05:45:53;;;;;;;47.15;32.45;;;;;;;;;;5015616;28;20488;-81
2022/10/21 05:48:19;;;;;;;49.75;33.40;;;;;;;;;;5015353;28;20389;-83
2022/10/21 05:50:46;;;;;;;38.25;29.17;;;;;;;;;;5015003;28;20380;-83
2022/10/21 05:53:12;;;;;;;39.30;29.45;;;;;;;;;;5015433;28;20385;-82
2022/10/21 05:55:38;;;;;;;32.17;26.40;;;;;;;;;;5015829;28;20833;-83
2022/10/21 05:58:04;;;;;;;32.42;25.92;;;;;;;;;;5015524;28;20404;-83
2022/10/21 06:00:30;;;;;;;32.55;25.40;;;;;;;;;;5015397;28;20782;-83
2022/10/21 06:02:56;;;;;;;37.10;28.15;;;;;;;;;;5015324;28;20389;-82
2022/10/21 06:05:22;;;;;;;33.63;27.05;;;;;;;;;;5015443;28;20431;-82
2022/10/21 06:07:48;;;;;;;35.75;28.38;;;;;;;;;;5015299;28;20412;-83
2022/10/21 06:10:15;;;;;;;36.53;27.75;;;;;;;;;;5015302;28;20447;-82
2022/10/21 06:12:41;;;;;;;30.05;25.05;;;;;;;;;;5015038;28;20381;-81
2022/10/21 06:15:07;;;;;;;29.60;24.83;;;;;;;;;;5015292;28;20392;-83
2022/10/21 06:17:33;;;;;;;30.40;24.92;;;;;;;;;;5015604;28;20419;-83
2022/10/21 06:20:00;;;;;;;33.97;26.20;;;;;;;;;;5014965;28;20385;-82
2022/10/21 06:22:26;;;;;;;36.50;25.52;;;;;;;;;;5015211;28;20500;-81
2022/10/21 06:24:52;;;;;;;31.98;24.27;;;;;;;;;;5014917;28;20381;-83
2022/10/21 06:27:19;;;;;;;29.85;25.02;;;;;;;;;;5014089;28;20866;-82
2022/10/21 06:29:45;;;;;;;39.22;27.48;;;;;;;;;;5015128;28;20475;-83
2022/10/21 06:32:11;;;;;;;42.35;30.70;;;;;;;;;;5014620;28;20440;-83
2022/10/21 06:34:37;;;;;;;53.55;34.22;;;;;;;;;;5012535;28;20389;-82
2022/10/21 06:37:03;;;;;;;71.47;40.35;;;;;;;;;;5012779;28;20900;-82
2022/10/21 06:39:29;;;;;;;94.28;44.72;;;;;;;;;;5012557;28;20463;-82
2022/10/21 06:41:55;;;;;;;92.35;46.90;;;;;;;;;;5014223;28;20452;-81
2022/10/21 06:44:21;;;;;;;69.45;43.25;;;;;;;;;;5013697;28;20852;-81
2022/10/21 06:46:47;;;;;;;68.68;40.88;;;;;;;;;;5014422;28;20381;-81
2022/10/21 06:49:13;;;;;;;69.03;39.33;;;;;;;;;;5013677;28;20381;-83
2022/10/21 06:51:39;;;;;;;68.37;39.67;;;;;;;;;;5014247;28;20372;-82
2022/10/21 06:54:05;;;;;;;69.22;39.25;;;;;;;;;;5005160;28;20382;-82
2022/10/21 06:56:31;;;;;;;62.90;39.53;;;;;;;;;;4999770;28;20924;-82
2022/10/21 06:58:57;;;;;;;66.20;38.85;;;;;;;;;;5013312;28;20373;-82
2022/10/21 07:01:25;;;;;;;69.30;40.28;;;;;;;;;;5013255;28;20397;-84
2022/10/21 07:03:51;;;;;;;74.32;41.65;;;;;;;;;;5014111;28;20381;-85
2022/10/21 07:06:17;;;;;;;56.85;38.33;;;;;;;;;;5014324;28;20460;-84
2022/10/21 07:08:43;;;;;;;55.72;35.40;;;;;;;;;;5013993;28;20388;-84
2022/10/21 07:11:10;;;;;;;56.00;35.95;;;;;;;;;;5013653;28;20384;-83
2022/10/21 07:13:36;;;;;;;52.65;34.70;;;;;;;;;;5014127;28;20531;-84
2022/10/21 07:16:03;;;;;;;54.53;35.10;;;;;;;;;;5014082;28;20881;-83
2022/10/21 07:18:29;;;;;;;48.30;32.63;;;;;;;;;;5012285;28;20498;-82
2022/10/21 07:20:55;;;;;;;43.05;30.50;;;;;;;;;;5011125;28;20392;-83
2022/10/21 07:23:21;;;;;;;49.67;32.80;;;;;;;;;;5013062;28;20385;-83
2022/10/21 07:25:47;;;;;;;52.38;34.35;;;;;;;;;;5013039;28;20373;-83
2022/10/21 07:28:13;;;;;;;52.27;33.70;;;;;;;;;;5012675;28;20501;-82
2022/10/21 07:30:41;;;;;;;40.85;30.17;;;;;;;;;;5013157;28;20392;-83
2022/10/21 07:33:07;;;;;;;41.10;31.23;;;;;;;;;;5012290;28;20451;-83
2022/10/21 07:35:33;;;;;;;39.53;30.42;;;;;;;;;;5014104;28;20380;-83
2022/10/21 07:37:59;;;;;;;58.72;34.25;;;;;;;;;;5013668;28;20487;-84
2022/10/21 07:40:27;;;;;;;50.40;34.47;;;;;;;;;;5013533;28;20712;-84
2022/10/21 07:42:53;;;;;;;47.10;33.57;;;;;;;;;;5013435;28;20877;-83
2022/10/21 07:45:19;;;;;;;48.67;33.38;;;;;;;;;;5013337;28;20377;-82
2022/10/21 07:47:45;;;;;;;39.33;30.15;;;;;;;;;;5010274;28;20824;-83
2022/10/21 07:50:11;;;;;;;44.65;32.53;;;;;;;;;;5011064;28;20389;-83
2022/10/21 07:52:44;;;;;;;43.55;31.38;;;;;;;;;;5010758;28;20388;-82
2022/10/21 07:55:10;;;;;;;43.15;31.85;;;;;;;;;;5011832;28;20522;-83
2022/10/21 07:57:37;;;;;;;49.85;33.63;;;;;;;;;;5012331;28;20400;-82
2022/10/21 08:00:04;;;;;;;46.47;32.25;;;;;;;;;;5013207;28;20381;-82
2022/10/21 08:02:30;;;;;;;50.78;30.00;;;;;;;;;;5011949;28;20393;-82
2022/10/21 08:04:56;;;;;;;46.10;30.80;;;;;;;;;;5012216;28;20384;-82
2022/10/21 08:07:22;;;;;;;46.17;30.70;;;;;;;;;;5011954;28;20389;-82
2022/10/21 08:09:48;;;;;;;41.67;30.15;;;;;;;;;;5011731;28;20420;-83
2022/10/21 08:12:14;;;;;;;36.95;28.70;;;;;;;;;;5012947;28;20385;-82
2022/10/21 08:14:40;;;;;;;45.17;31.75;;;;;;;;;;5012505;28;20389;-82
2022/10/21 08:17:06;;;;;;;71.20;38.45;;;;;;;;;;5011903;28;20452;-83
2022/10/21 08:19:32;;;;;;;55.72;34.55;;;;;;;;;;5011920;28;20480;-83
2022/10/21 08:21:59;;;;;;;62.88;37.60;;;;;;;;;;5010763;28;20750;-83
2022/10/21 08:24:26;;;;;;;70.47;38.78;;;;;;;;;;5011864;28;20464;-83
2022/10/21 08:26:55;;;;;;;74.47;41.03;;;;;;;;;;5013009;28;20451;-83
2022/10/21 08:29:22;;;;;;;82.28;43.85;;;;;;;;;;5012707;28;20447;-82
2022/10/21 08:31:48;;;;;;;86.65;46.50;;;;;;;;;;5011364;28;20754;-84
2022/10/21 08:34:14;;;;;;;86.00;49.83;;;;;;;;;;5012745;28;20393;-84
2022/10/21 08:36:40;;;;;;;89.22;46.22;;;;;;;;;;5012556;28;20415;-85
2022/10/21 08:39:06;;;;;;;41.85;26.88;;;;;;;;;;5012804;28;20997;-84
2022/10/21 08:41:35;;;;;;;27.33;21.17;;;;;;;;;;5011227;28;20750;-85
2022/10/21 08:44:13;;;;;;;19.33;16.40;;;;;;;;;;5012952;28;20472;-84
2022/10/21 08:46:44;;;;;;;22.23;17.15;;;;;;;;;;5012268;28;20377;-85
2022/10/21 08:49:25;;;;;;;20.65;17.75;;;;;;;;;;5012331;28;20392;-85
2022/10/21 08:51:55;;;;;;;24.40;19.63;;;;;;;;;;5011970;28;20881;-85
2022/10/21 08:54:28;;;;;;;24.23;20.63;;;;;;;;;;5012914;28;20377;-85
2022/10/21 08:56:57;;;;;;;26.58;21.15;;;;;;;;;;5012228;28;20424;-85
2022/10/21 08:59:24;;;;;;;23.52;20.95;;;;;;;;;;5012654;28;20869;-86
2022/10/21 09:01:58;;;;;;;31.50;23.85;;;;;;;;;;5011622;28;20393;-84
2022/10/21 09:04:33;;;;;;;27.65;21.30;;;;;;;;;;5012494;28;20384;-84
2022/10/21 09:07:18;;;;;;;25.77;21.15;;;;;;;;;;5012390;28;20407;-84
2022/10/21 09:09:59;;;;;;;24.60;20.30;;;;;;;;;;5012327;28;20372;-84
2022/10/21 09:12:31;;;;;;;23.30;20.13;;;;;;;;;;5012159;28;20474;-84
2022/10/21 09:15:17;;;;;;;25.98;20.52;;;;;;;;;;5012294;28;20416;-85
2022/10/21 09:17:53;;;;;;;21.42;18.40;;;;;;;;;;5018044;28;20944;-82
2022/10/21 09:20:19;;;;;;;22.65;19.58;;;;;;;;;;5023867;28;20888;-81
2022/10/21 09:22:48;;;;;;;20.60;18.38;;;;;;;;;;5016771;28;20399;-81
2022/10/21 09:25:17;;;;;;;17.63;15.85;;;;;;;;;;5029060;28;20891;-81
2022/10/21 09:27:43;;;;;;;15.00;13.73;;;;;;;;;;5023926;28;20375;-81
2022/10/21 09:30:21;;;;;;;13.00;11.68;;;;;;;;;;5012228;28;20907;-81
2022/10/21 09:32:49;;;;;;;11.52;10.40;;;;;;;;;;5016710;28;20416;-80
2022/10/21 09:35:37;;;;;;;12.25;11.05;;;;;;;;;;5012157;28;20380;-80
2022/10/21 09:38:11;;;;;;;10.52;9.73;;;;;;;;;;5011358;28;20413;-80
2022/10/21 09:40:37;;;;;;;12.07;11.00;;;;;;;;;;5012086;28;20381;-80
2022/10/21 09:43:03;;;;;;;11.48;10.35;;;;;;;;;;5011437;28;20434;-80
2022/10/21 09:45:29;;;;;;;11.48;10.38;;;;;;;;;;5011487;28;20385;-80
2022/10/21 09:48:01;;;;;;;11.98;10.73;;;;;;;;;;5002195;28;20390;-80
2022/10/21 09:50:28;;;;;;;10.38;9.48;;;;;;;;;;4998612;28;20468;-80
2022/10/21 09:53:02;;;;;;;9.83;8.93;;;;;;;;;;5011004;28;20977;-80
2022/10/21 09:55:29;;;;;;;8.40;7.60;;;;;;;;;;4996650;28;20931;-80
2022/10/21 09:57:57;;;;;;;8.68;7.88;;;;;;;;;;5005760;28;20916;-80
2022/10/21 10:00:39;;;;;;;8.82;7.95;;;;;;;;;;4996117;28;20422;-80
2022/10/21 10:03:07;;;;;;;9.25;8.35;;;;;;;;;;4990617;28;20394;-80
2022/10/21 10:05:47;;;;;;;9.07;8.17;;;;;;;;;;5006391;28;20743;-80
2022/10/21 10:08:31;;;;;;;9.82;7.60;;;;;;;;;;5000530;28;20387;-80
2022/10/21 10:11:09;;;;;;;7.78;7.07;;;;;;;;;;5003738;28;20389;-80
2022/10/21 10:13:36;;;;;;;8.47;6.50;;;;;;;;;;5011141;28;20437;-80
2022/10/21 10:16:12;;;;;;;6.83;6.20;;;;;;;;;;5023695;28;20760;-80
2022/10/21 10:18:38;;;;;;;7.85;7.05;;;;;;;;;;5022254;28;20494;-80
2022/10/21 10:21:05;;;;;;;7.82;6.65;;;;;;;;;;5015940;28;20965;-80
2022/10/21 10:23:43;;;;;;;7.90;7.10;;;;;;;;;;5013530;28;20385;-80
2022/10/21 10:26:10;;;;;;;7.65;6.95;;;;;;;;;;5014674;28;20459;-80
2022/10/21 10:28:36;;;;;;;8.47;7.67;;;;;;;;;;5014708;28;20948;-80
2022/10/21 10:31:02;;;;;;;8.68;7.88;;;;;;;;;;5014564;28;20417;-80
2022/10/21 10:33:31;;;;;;;10.35;9.35;;;;;;;;;;5013313;28;20924;-80
2022/10/21 10:36:01;;;;;;;9.55;8.73;;;;;;;;;;5014314;28;20412;-80
2022/10/21 10:38:47;;;;;;;10.00;9.10;;;;;;;;;;5014504;28;20495;-80
2022/10/21 10:41:17;;;;;;;11.98;10.57;;;;;;;;;;5012794;28;20447;-80
2022/10/21 10:43:46;;;;;;;11.20;10.20;;;;;;;;;;5014111;28;20862;-80
2022/10/21 10:46:17;;;;;;;12.25;11.00;;;;;;;;;;5014834;28;20409;-80
2022/10/21 10:48:46;;;;;;;12.45;11.15;;;;;;;;;;5013395;28;20480;-80
2022/10/21 10:51:23;;;;;;;14.10;12.52;;;;;;;;;;5013668;28;20401;-80
2022/10/21 10:53:59;;;;;;;13.37;12.00;;;;;;;;;;5014237;28;20898;-80
2022/10/21 10:56:43;;;;;;;12.93;11.77;;;;;;;;;;5014029;28;20464;-80
2022/10/21 10:59:16;;;;;;;11.68;10.68;;;;;;;;;;5013919;28;20393;-80
2022/10/21 11:01:56;;;;;;;12.25;11.13;;;;;;;;;;5012891;28;20393;-80
2022/10/21 11:04:38;;;;;;;11.40;10.38;;;;;;;;;;5012750;28;20473;-80
2022/10/21 11:07:22;;;;;;;11.07;10.00;;;;;;;;;;5008210;28;20395;-81
2022/10/21 11:09:50;;;;;;;11.30;10.18;;;;;;;;;;5010761;28;20878;-78
2022/10/21 11:12:19;;;;;;;11.70;10.50;;;;;;;;;;5013042;28;20394;-78
2022/10/21 11:14:50;;;;;;;11.68;10.65;;;;;;;;;;5013782;28;20997;-78
2022/10/21 11:17:18;;;;;;;13.30;10.80;;;;;;;;;;5011955;28;20514;-78
2022/10/21 11:19:54;;;;;;;12.10;11.00;;;;;;;;;;5013408;28;20381;-78
2022/10/21 11:22:26;;;;;;;11.02;9.70;;;;;;;;;;5013812;28;20387;-78
2022/10/21 11:24:52;;;;;;;11.27;10.25;;;;;;;;;;5013359;28;20377;-80
2022/10/21 11:27:30;;;;;;;11.00;9.93;;;;;;;;;;5013721;28;20885;-80
2022/10/21 11:30:16;;;;;;;10.50;9.50;;;;;;;;;;5013749;28;20392;-79
2022/10/21 11:32:51;;;;;;;10.70;9.60;;;;;;;;;;5013043;28;20432;-80
2022/10/21 11:35:25;;;;;;;10.17;9.17;;;;;;;;;;5012286;28;20495;-80
2022/10/21 11:37:51;;;;;;;10.88;9.77;;;;;;;;;;5013364;28;20404;-81
2022/10/21 11:40:23;;;;;;;10.35;8.23;;;;;;;;;;5012644;28;20823;-80
2022/10/21 11:42:50;;;;;;;8.63;7.82;;;;;;;;;;5013330;28;20897;-81
2022/10/21 11:45:22;;;;;;;9.03;7.97;;;;;;;;;;5012945;28;20439;-82
2022/10/21 11:47:56;;;;;;;8.45;7.53;;;;;;;;;;5012949;28;20460;-83
2022/10/21 11:50:25;;;;;;;8.98;8.07;;;;;;;;;;5013199;28;20871;-80
2022/10/21 11:53:13;;;;;;;9.00;7.95;;;;;;;;;;5011534;28;20766;-80
2022/10/21 11:55:41;;;;;;;7.47;6.85;;;;;;;;;;5012744;28;20393;-79
2022/10/21 11:58:10;;;;;;;7.43;6.28;;;;;;;;;;5013153;28;20409;-78
2022/10/21 12:00:58;;;;;;;8.50;6.43;;;;;;;;;;5012819;28;20447;-79
2022/10/21 12:03:46;;;;;;;7.60;6.80;;;;;;;;;;5013204;28;20396;-79
2022/10/21 12:06:15;;;;;;;7.05;6.45;;;;;;;;;;5013073;28;20369;-82
2022/10/21 12:08:58;;;;;;;7.78;7.07;;;;;;;;;;5013031;28;20941;-81
2022/10/21 12:11:44;;;;;;;7.20;6.50;;;;;;;;;;5025054;28;20986;-81
2022/10/21 12:14:22;;;;;;;7.15;6.50;;;;;;;;;;5012699;28;20399;-81
2022/10/21 12:16:49;;;;;;;6.97;6.38;;;;;;;;;;5012741;28;20964;-81
2022/10/21 12:19:15;;;;;;;7.65;6.57;;;;;;;;;;5012880;28;20392;-81
2022/10/21 12:21:43;;;;;;;7.47;6.78;;;;;;;;;;5012972;28;20377;-81
2022/10/21 12:24:35;;;;;;;7.00;6.35;;;;;;;;;;5012414;28;20850;-81
2022/10/21 12:27:01;;;;;;;6.70;6.10;;;;;;;;;;5011935;28;20377;-82
2022/10/21 12:29:46;;;;;;;7.75;7.05;;;;;;;;;;5012683;28;20381;-81
2022/10/21 12:32:24;;;;;;;6.30;5.70;;;;;;;;;;5012308;28;20369;-82
2022/10/21 12:34:50;;;;;;;6.07;5.47;;;;;;;;;;5012609;28;20460;-82
2022/10/21 12:37:35;;;;;;;6.50;5.88;;;;;;;;;;5011997;28;20463;-82
2022/10/21 12:40:16;;;;;;;8.90;5.75;;;;;;;;;;5012522;28;20924;-81
2022/10/21 12:42:57;;;;;;;9.60;7.35;;;;;;;;;;5012344;28;20376;-81
2022/10/21 12:45:30;;;;;;;7.57;5.82;;;;;;;;;;5012441;28;20743;-81
2022/10/21 12:47:57;;;;;;;7.43;6.63;;;;;;;;;;5012514;28;20389;-80
2022/10/21 12:50:30;;;;;;;5.93;5.22;;;;;;;;;;5011030;28;20384;-82
2022/10/21 12:53:11;;;;;;;6.35;5.43;;;;;;;;;;5012342;28;20439;-82
2022/10/21 12:55:40;;;;;;;5.15;4.38;;;;;;;;;;5010953;28;20761;-82
2022/10/21 12:58:17;;;;;;;5.90;4.78;;;;;;;;;;5011280;28;20404;-82
2022/10/21 13:00:42;;;;;;;4.47;4.18;;;;;;;;;;5011049;28;20407;-82
2022/10/21 13:03:10;;;;;;;5.22;4.78;;;;;;;;;;5012634;28;20472;-82
2022/10/21 13:05:35;;;;;;;5.03;4.63;;;;;;;;;;5012310;28;20388;-82
2022/10/21 13:08:21;;;;;;;7.43;4.47;;;;;;;;;;5011914;28;20438;-82
2022/10/21 13:11:03;;;;;;;5.70;5.20;;;;;;;;;;5006762;28;20380;-82
2022/10/21 13:13:29;;;;;;;5.07;4.30;;;;;;;;;;5012923;28;20395;-82
2022/10/21 13:15:55;;;;;;;5.63;4.05;;;;;;;;;;5010253;28;20472;-82
2022/10/21 13:18:40;;;;;;;5.28;4.60;;;;;;;;;;5012309;28;20430;-82
2022/10/21 13:21:21;;;;;;;5.82;4.53;;;;;;;;;;5012025;28;20400;-82
2022/10/21 13:23:51;;;;;;;5.47;4.90;;;;;;;;;;5010803;28;20867;-82
2022/10/21 13:26:19;;;;;;;5.07;4.45;;;;;;;;;;5012538;28;20409;-82
2022/10/21 13:28:58;;;;;;;5.20;4.70;;;;;;;;;;5012147;28;20818;-81
2022/10/21 13:31:24;;;;;;;6.63;5.05;;;;;;;;;;5012000;28;20412;-81
2022/10/21 13:33:52;;;;;;;5.68;5.07;;;;;;;;;;5012071;28;20416;-81
2022/10/21 13:36:31;;;;;;;5.45;4.90;;;;;;;;;;5012338;28;20388;-81
2022/10/21 13:38:58;;;;;;;7.28;4.80;;;;;;;;;;5015611;28;20409;-81
2022/10/21 13:41:24;;;;;;;7.00;4.40;;;;;;;;;;5015753;28;20388;-82
2022/10/21 13:43:55;;;;;;;5.00;4.10;;;;;;;;;;5015890;28;20484;-82
2022/10/21 13:46:25;;;;;;;6.47;4.63;;;;;;;;;;5015626;28;20385;-81
2022/10/21 13:48:52;;;;;;;4.93;4.40;;;;;;;;;;5015768;28;20388;-81
2022/10/21 13:51:19;;;;;;;5.80;4.68;;;;;;;;;;5015174;28;20385;-81
2022/10/21 13:53:46;;;;;;;6.70;4.50;;;;;;;;;;5015422;28;20393;-81
2022/10/21 13:56:23;;;;;;;8.65;4.97;;;;;;;;;;5015451;28;20381;-81
2022/10/21 13:58:49;;;;;;;6.05;4.63;;;;;;;;;;5014770;28;20408;-81
2022/10/21 14:01:21;;;;;;;5.10;4.70;;;;;;;;;;5015454;28;20524;-82
2022/10/21 14:03:47;;;;;;;7.38;4.53;;;;;;;;;;5015791;28;20435;-81
2022/10/21 14:06:30;;;;;;;4.82;4.43;;;;;;;;;;5015482;28;20404;-82
2022/10/21 14:08:57;;;;;;;5.38;4.80;;;;;;;;;;5015192;28;20377;-82
2022/10/21 14:11:28;;;;;;;7.32;5.20;;;;;;;;;;5015083;28;20527;-81
2022/10/21 14:13:56;;;;;;;7.63;6.18;;;;;;;;;;5015403;28;20388;-81
2022/10/21 14:16:37;;;;;;;5.97;5.38;;;;;;;;;;5014662;28;20857;-81
2022/10/21 14:19:06;;;;;;;6.90;5.28;;;;;;;;;;5013290;28;20404;-81
2022/10/21 14:21:35;;;;;;;5.80;5.20;;;;;;;;;;5014820;28;20747;-80
2022/10/21 14:24:02;;;;;;;6.57;5.32;;;;;;;;;;5014915;28;20431;-80
2022/10/21 14:26:30;;;;;;;6.10;5.35;;;;;;;;;;5014822;28;20393;-80
2022/10/21 14:28:57;;;;;;;6.00;5.40;;;;;;;;;;5014839;28;20381;-79
2022/10/21 14:31:23;;;;;;;6.03;5.43;;;;;;;;;;5015032;28;20393;-79
2022/10/21 14:33:49;;;;;;;5.35;4.70;;;;;;;;;;5014283;28;20476;-79
2022/10/21 14:36:19;;;;;;;5.18;4.65;;;;;;;;;;5014801;28;20393;-82
2022/10/21 14:38:57;;;;;;;6.22;5.32;;;;;;;;;;5014493;28;20412;-79
2022/10/21 14:41:29;;;;;;;7.50;5.90;;;;;;;;;;5014476;28;20487;-79
2022/10/21 14:43:56;;;;;;;5.03;4.63;;;;;;;;;;5014657;28;20389;-79
2022/10/21 14:46:23;;;;;;;6.53;5.13;;;;;;;;;;5014582;28;20385;-79
2022/10/21 14:48:58;;;;;;;5.55;5.03;;;;;;;;;;5013644;28;20416;-79
2022/10/21 14:51:24;;;;;;;6.13;5.27;;;;;;;;;;5014559;28;20377;-79
2022/10/21 14:53:56;;;;;;;5.65;4.93;;;;;;;;;;5012934;28;20906;-79
2022/10/21 14:56:23;;;;;;;5.30;4.40;;;;;;;;;;5014460;28;20417;-79
2022/10/21 14:58:51;;;;;;;8.27;4.55;;;;;;;;;;5014144;28;20506;-79
2022/10/21 15:01:19;;;;;;;6.68;5.03;;;;;;;;;;5013868;28;20393;-79
2022/10/21 15:03:50;;;;;;;6.10;4.30;;;;;;;;;;5014285;28;20405;-79
2022/10/21 15:06:17;;;;;;;5.97;4.32;;;;;;;;;;5014080;28;20385;-79
2022/10/21 15:09:03;;;;;;;4.93;4.10;;;;;;;;;;5014134;28;20385;-79
2022/10/21 15:11:38;;;;;;;7.45;5.50;;;;;;;;;;5010515;28;20393;-80
2022/10/21 15:14:06;;;;;;;5.88;4.95;;;;;;;;;;5013621;28;20377;-80
2022/10/21 15:16:32;;;;;;;6.05;4.50;;;;;;;;;;5008439;28;20408;-80
2022/10/21 15:18:59;;;;;;;6.03;4.47;;;;;;;;;;5013470;28;20424;-80
2022/10/21 15:21:44;;;;;;;4.68;4.20;;;;;;;;;;5013663;28;20423;-80
2022/10/21 15:24:17;;;;;;;5.00;4.30;;;;;;;;;;5013594;28;20412;-79
2022/10/21 15:26:45;;;;;;;6.95;5.07;;;;;;;;;;5013319;28;20391;-79
2022/10/21 15:29:18;;;;;;;7.40;5.15;;;;;;;;;;5013677;28;20445;-80
2022/10/21 15:31:44;;;;;;;5.63;5.05;;;;;;;;;;5013953;28;20892;-80
2022/10/21 15:34:13;;;;;;;7.28;4.95;;;;;;;;;;5013654;28;20468;-79
2022/10/21 15:36:39;;;;;;;5.70;4.55;;;;;;;;;;5013321;28;20724;-81
2022/10/21 15:39:05;;;;;;;5.47;4.72;;;;;;;;;;5013115;28;20427;-81
2022/10/21 15:41:31;;;;;;;6.22;3.53;;;;;;;;;;5012742;28;20389;-80
2022/10/21 15:43:57;;;;;;;6.72;3.90;;;;;;;;;;5013473;28;20447;-81
2022/10/21 15:46:25;;;;;;;4.45;3.60;;;;;;;;;;5012185;28;20443;-81
2022/10/21 15:48:51;;;;;;;5.80;4.78;;;;;;;;;;5013272;28;20381;-81
2022/10/21 15:51:17;;;;;;;6.40;4.28;;;;;;;;;;5013271;28;20387;-81
2022/10/21 15:53:43;;;;;;;4.20;3.13;;;;;;;;;;5013324;28;20738;-81
2022/10/21 15:56:11;;;;;;;4.85;3.25;;;;;;;;;;5013157;28;20427;-81
2022/10/21 15:58:37;;;;;;;5.23;3.33;;;;;;;;;;5012865;28;20416;-81
2022/10/21 16:01:03;;;;;;;3.67;3.30;;;;;;;;;;5012914;28;20401;-81
2022/10/21 16:03:30;;;;;;;4.05;3.50;;;;;;;;;;5013290;28;20866;-81
2022/10/21 16:05:57;;;;;;;4.10;3.33;;;;;;;;;;5012285;28;20530;-80
2022/10/21 16:08:23;;;;;;;3.60;3.40;;;;;;;;;;5012662;28;20471;-81
2022/10/21 16:10:49;;;;;;;3.90;3.50;;;;;;;;;;5012828;28;20486;-80
2022/10/21 16:13:15;;;;;;;3.45;3.15;;;;;;;;;;5012938;28;20389;-81
2022/10/21 16:15:41;;;;;;;6.05;3.63;;;;;;;;;;5011647;28;20396;-81
2022/10/21 16:18:11;;;;;;;6.50;4.50;;;;;;;;;;5012677;28;20409;-82
2022/10/21 16:20:37;;;;;;;4.28;3.58;;;;;;;;;;5012735;28;20377;-80
2022/10/21 16:23:04;;;;;;;4.32;3.83;;;;;;;;;;5012702;28;20376;-80
2022/10/21 16:25:30;;;;;;;5.40;4.28;;;;;;;;;;4999123;28;20373;-80
2022/10/21 16:27:57;;;;;;;5.78;4.35;;;;;;;;;;5010852;28;21541;-79
2022/10/21 16:30:28;;;;;;;5.00;4.38;;;;;;;;;;5012028;28;20431;-80
2022/10/21 16:32:54;;;;;;;5.05;4.35;;;;;;;;;;5012588;28;20373;-80
2022/10/21 16:35:20;;;;;;;5.05;4.38;;;;;;;;;;5012554;28;20377;-79
2022/10/21 16:37:47;;;;;;;5.10;4.35;;;;;;;;;;5004752;28;20426;-80
2022/10/21 16:40:18;;;;;;;5.50;5.00;;;;;;;;;;5008377;28;20582;-79
2022/10/21 16:42:44;;;;;;;5.68;4.90;;;;;;;;;;5012223;28;20789;-80
2022/10/21 16:45:12;;;;;;;5.65;5.10;;;;;;;;;;5012205;28;20384;-81
2022/10/21 16:47:38;;;;;;;7.32;5.30;;;;;;;;;;5012531;28;20415;-79
2022/10/21 16:50:04;;;;;;;5.75;5.18;;;;;;;;;;5011512;28;20408;-79
2022/10/21 16:52:32;;;;;;;5.50;4.53;;;;;;;;;;5011949;28;20388;-82
2022/10/21 16:54:58;;;;;;;8.50;5.20;;;;;;;;;;5012475;28;20479;-81
2022/10/21 16:57:24;;;;;;;5.65;4.43;;;;;;;;;;5012240;28;20960;-82
2022/10/21 16:59:50;;;;;;;6.75;5.10;;;;;;;;;;5012510;28;20385;-81
2022/10/21 17:02:18;;;;;;;5.65;4.47;;;;;;;;;;5012150;28;20897;-80
2022/10/21 17:04:45;;;;;;;5.13;4.70;;;;;;;;;;5011122;28;20735;-81
2022/10/21 17:07:12;;;;;;;7.00;4.45;;;;;;;;;;5012545;28;20385;-82
2022/10/21 17:09:37;;;;;;;4.70;4.30;;;;;;;;;;5011026;28;20482;-81
2022/10/21 17:12:04;;;;;;;5.13;4.72;;;;;;;;;;5003877;28;20854;-81
2022/10/21 17:14:30;;;;;;;6.72;4.80;;;;;;;;;;5011354;28;20462;-81
2022/10/21 17:16:56;;;;;;;5.90;5.30;;;;;;;;;;5007497;28;20380;-81
2022/10/21 17:19:23;;;;;;;5.20;4.70;;;;;;;;;;5015972;28;20865;-81
2022/10/21 17:21:49;;;;;;;7.72;6.75;;;;;;;;;;5016026;28;20737;-82
2022/10/21 17:24:16;;;;;;;5.22;4.72;;;;;;;;;;5016232;28;20376;-81
2022/10/21 17:26:42;;;;;;;5.38;4.57;;;;;;;;;;5015338;28;20415;-80
2022/10/21 17:29:12;;;;;;;4.22;3.83;;;;;;;;;;5015655;28;20385;-79
2022/10/21 17:31:39;;;;;;;4.47;4.07;;;;;;;;;;5013719;28;20953;-80
2022/10/21 17:34:06;;;;;;;5.18;4.13;;;;;;;;;;5016318;28;20870;-79
2022/10/21 17:36:36;;;;;;;5.07;4.57;;;;;;;;;;5014738;28;20393;-79
2022/10/21 17:39:02;;;;;;;5.60;4.60;;;;;;;;;;5014455;28;20784;-79
2022/10/21 17:41:28;;;;;;;4.30;3.90;;;;;;;;;;5015594;28;20462;-79
2022/10/21 17:43:54;;;;;;;4.80;4.40;;;;;;;;;;5010072;28;20885;-79
2022/10/21 17:46:22;;;;;;;6.57;4.40;;;;;;;;;;5004846;28;20421;-79
2022/10/21 17:48:51;;;;;;;5.38;4.60;;;;;;;;;;5000814;28;20386;-79
2022/10/21 17:51:17;;;;;;;5.57;5.05;;;;;;;;;;5001580;28;20473;-79
2022/10/21 17:53:43;;;;;;;7.32;5.10;;;;;;;;;;5003711;28;20437;-79
2022/10/21 17:56:10;;;;;;;7.43;5.57;;;;;;;;;;5018361;28;21148;-79
2022/10/21 17:58:36;;;;;;;6.30;5.70;;;;;;;;;;5004172;28;20417;-80
2022/10/21 18:01:07;;;;;;;6.00;5.50;;;;;;;;;;5011474;28;20397;-80
2022/10/21 18:03:33;;;;;;;6.30;5.70;;;;;;;;;;5014507;28;20480;-80
2022/10/21 18:05:59;;;;;;;6.72;6.05;;;;;;;;;;5014306;28;20389;-80
2022/10/21 18:08:25;;;;;;;6.53;5.90;;;;;;;;;;5012569;28;20408;-80
2022/10/21 18:10:52;;;;;;;6.45;5.82;;;;;;;;;;5014804;28;20471;-79
2022/10/21 18:13:18;;;;;;;7.53;6.90;;;;;;;;;;5015425;28;20735;-80
2022/10/21 18:15:44;;;;;;;10.07;7.70;;;;;;;;;;5015106;28;20384;-80
2022/10/21 18:18:11;;;;;;;10.25;6.35;;;;;;;;;;5014977;28;20412;-80
2022/10/21 18:20:37;;;;;;;6.60;5.90;;;;;;;;;;5014466;28;20384;-80
2022/10/21 18:23:03;;;;;;;6.72;6.13;;;;;;;;;;5014044;28;20377;-80
2022/10/21 18:25:29;;;;;;;6.40;5.70;;;;;;;;;;5015070;28;20435;-80
2022/10/21 18:27:55;;;;;;;7.82;7.07;;;;;;;;;;5014884;28;20916;-80
2022/10/21 18:30:21;;;;;;;8.77;7.97;;;;;;;;;;5014805;28;20381;-79
2022/10/21 18:32:47;;;;;;;8.70;7.45;;;;;;;;;;5013761;28;20719;-79
2022/10/21 18:35:13;;;;;;;18.33;11.68;;;;;;;;;;5014790;28;20396;-80
2022/10/21 18:37:39;;;;;;;13.52;12.13;;;;;;;;;;5014603;28;20409;-80
2022/10/21 18:40:06;;;;;;;12.55;11.35;;;;;;;;;;5013360;28;20404;-80
2022/10/21 18:42:32;;;;;;;11.30;10.40;;;;;;;;;;5014448;28;20392;-80